sensor_id;sensor_type;location;lat;lon;timestamp;temperature;humidity
19692;DHT22;42748;50.016;19.890;2023-02-11T00:01:12;0.00;99.90
19692;DHT22;42748;50.016;19.890;2023-02-11T00:03:40;-0.10;99.90
19692;DHT22;42748;50.016;19.890;2023-02-11T00:06:07;-0.10;99.90
19692;DHT22;42748;50.016;19.890;2023-02-11T00:08:38;-0.10;99.90
19692;DHT22;42748;50.016;19.890;2023-02-11T00:11:05;-0.10;99.90
19692;DHT22;42748;50.016;19.890;2023-02-11T00:13:33;-0.10;99.90
19692;DHT22;42748;50.016;19.890;2023-02-11T00:16:08;-0.20;99.90
19692;DHT22;42748;50.016;19.890;2023-02-11T00:18:36;-0.20;99.90
19692;DHT22;42748;50.016;19.890;2023-02-11T00:21:08;-0.30;99.90
19692;DHT22;42748;50.016;19.890;2023-02-11T00:23:36;-0.30;99.90
19692;DHT22;42748;50.016;19.890;2023-02-11T00:26:13;-0.40;99.90
19692;DHT22;42748;50.016;19.890;2023-02-11T00:28:42;-0.50;99.90
19692;DHT22;42748;50.016;19.890;2023-02-11T00:31:10;-0.50;99.90
19692;DHT22;42748;50.016;19.890;2023-02-11T00:33:37;-0.50;99.90
19692;DHT22;42748;50.016;19.890;2023-02-11T00:36:12;-0.60;99.90
19692;DHT22;42748;50.016;19.890;2023-02-11T00:38:42;-0.60;99.90
19692;DHT22;42748;50.016;19.890;2023-02-11T00:41:11;-0.50;99.90
19692;DHT22;42748;50.016;19.890;2023-02-11T00:43:39;-0.50;99.90
19692;DHT22;42748;50.016;19.890;2023-02-11T00:46:07;-0.50;99.90
19692;DHT22;42748;50.016;19.890;2023-02-11T00:48:35;-0.50;99.90
19692;DHT22;42748;50.016;19.890;2023-02-11T00:51:02;-0.50;99.90
19692;DHT22;42748;50.016;19.890;2023-02-11T00:53:31;-0.50;99.90
19692;DHT22;42748;50.016;19.890;2023-02-11T00:55:58;-0.50;99.90
19692;DHT22;42748;50.016;19.890;2023-02-11T00:58:27;-0.50;99.90
19692;DHT22;42748;50.016;19.890;2023-02-11T01:00:55;-0.50;99.90
19692;DHT22;42748;50.016;19.890;2023-02-11T01:03:23;-0.50;99.90
19692;DHT22;42748;50.016;19.890;2023-02-11T01:05:51;-0.50;99.90
19692;DHT22;42748;50.016;19.890;2023-02-11T01:08:18;-0.60;99.90
19692;DHT22;42748;50.016;19.890;2023-02-11T01:11:03;-0.60;99.90
19692;DHT22;42748;50.016;19.890;2023-02-11T01:13:32;-0.60;99.90
19692;DHT22;42748;50.016;19.890;2023-02-11T01:15:59;-0.70;99.90
19692;DHT22;42748;50.016;19.890;2023-02-11T01:18:27;-0.70;99.90
19692;DHT22;42748;50.016;19.890;2023-02-11T01:20:54;-0.70;99.90
19692;DHT22;42748;50.016;19.890;2023-02-11T01:23:22;-0.80;99.90
19692;DHT22;42748;50.016;19.890;2023-02-11T01:25:50;-0.80;99.90
19692;DHT22;42748;50.016;19.890;2023-02-11T01:28:20;-0.80;99.90
19692;DHT22;42748;50.016;19.890;2023-02-11T01:30:47;-0.80;99.90
19692;DHT22;42748;50.016;19.890;2023-02-11T01:33:15;-0.80;99.90
19692;DHT22;42748;50.016;19.890;2023-02-11T01:35:43;-0.80;99.90
19692;DHT22;42748;50.016;19.890;2023-02-11T01:38:22;-0.90;99.90
19692;DHT22;42748;50.016;19.890;2023-02-11T01:41:04;-0.90;99.90
19692;DHT22;42748;50.016;19.890;2023-02-11T01:43:34;-0.90;99.90
19692;DHT22;42748;50.016;19.890;2023-02-11T01:46:45;-0.90;99.90
19692;DHT22;42748;50.016;19.890;2023-02-11T01:54:21;-1.00;99.90
19692;DHT22;42748;50.016;19.890;2023-02-11T01:57:10;-1.00;99.90
19692;DHT22;42748;50.016;19.890;2023-02-11T02:02:51;-1.00;99.90
19692;DHT22;42748;50.016;19.890;2023-02-11T02:05:31;-1.00;99.90
19692;DHT22;42748;50.016;19.890;2023-02-11T02:08:24;-1.00;99.90
19692;DHT22;42748;50.016;19.890;2023-02-11T02:10:55;-1.00;99.90
19692;DHT22;42748;50.016;19.890;2023-02-11T02:13:29;-1.00;99.90
19692;DHT22;42748;50.016;19.890;2023-02-11T02:16:09;-1.00;99.90
19692;DHT22;42748;50.016;19.890;2023-02-11T02:36:01;-0.80;99.90
19692;DHT22;42748;50.016;19.890;2023-02-11T02:38:43;-0.80;99.90
19692;DHT22;42748;50.016;19.890;2023-02-11T02:41:15;-0.70;99.90
19692;DHT22;42748;50.016;19.890;2023-02-11T02:43:47;-0.80;99.90
19692;DHT22;42748;50.016;19.890;2023-02-11T02:46:20;-0.90;99.90
19692;DHT22;42748;50.016;19.890;2023-02-11T02:48:49;-1.00;99.90
19692;DHT22;42748;50.016;19.890;2023-02-11T03:12:14;-0.90;99.90
19692;DHT22;42748;50.016;19.890;2023-02-11T03:14:42;-0.90;99.90
19692;DHT22;42748;50.016;19.890;2023-02-11T03:17:11;-0.90;99.90
19692;DHT22;42748;50.016;19.890;2023-02-11T03:19:43;-0.90;99.90
19692;DHT22;42748;50.016;19.890;2023-02-11T03:22:17;-0.90;99.90
19692;DHT22;42748;50.016;19.890;2023-02-11T03:24:46;-0.90;99.90
19692;DHT22;42748;50.016;19.890;2023-02-11T03:32:41;-0.80;99.90
19692;DHT22;42748;50.016;19.890;2023-02-11T03:35:16;-0.80;99.90
19692;DHT22;42748;50.016;19.890;2023-02-11T03:37:50;-0.70;99.90
19692;DHT22;42748;50.016;19.890;2023-02-11T03:40:24;-0.60;99.90
19692;DHT22;42748;50.016;19.890;2023-02-11T03:43:10;-0.60;99.90
19692;DHT22;42748;50.016;19.890;2023-02-11T03:45:38;-0.60;99.90
19692;DHT22;42748;50.016;19.890;2023-02-11T03:48:13;-0.50;99.90
19692;DHT22;42748;50.016;19.890;2023-02-11T03:50:44;-0.50;99.90
19692;DHT22;42748;50.016;19.890;2023-02-11T03:53:13;-0.40;99.90
19692;DHT22;42748;50.016;19.890;2023-02-11T03:55:42;-0.40;99.90
19692;DHT22;42748;50.016;19.890;2023-02-11T03:58:09;-0.30;99.90
19692;DHT22;42748;50.016;19.890;2023-02-11T04:00:39;-0.30;99.90
19692;DHT22;42748;50.016;19.890;2023-02-11T04:03:08;-0.30;99.90
19692;DHT22;42748;50.016;19.890;2023-02-11T04:05:36;-0.30;99.90
19692;DHT22;42748;50.016;19.890;2023-02-11T04:08:04;-0.30;99.90
19692;DHT22;42748;50.016;19.890;2023-02-11T04:10:31;-0.30;99.90
19692;DHT22;42748;50.016;19.890;2023-02-11T04:12:58;-0.20;99.90
19692;DHT22;42748;50.016;19.890;2023-02-11T04:15:26;-0.30;99.90
19692;DHT22;42748;50.016;19.890;2023-02-11T04:17:53;-0.20;99.90
19692;DHT22;42748;50.016;19.890;2023-02-11T04:20:20;-0.30;99.90
19692;DHT22;42748;50.016;19.890;2023-02-11T04:22:47;-0.20;99.90
19692;DHT22;42748;50.016;19.890;2023-02-11T04:25:14;-0.20;99.90
19692;DHT22;42748;50.016;19.890;2023-02-11T04:27:42;-0.30;99.90
19692;DHT22;42748;50.016;19.890;2023-02-11T04:30:10;-0.30;99.90
19692;DHT22;42748;50.016;19.890;2023-02-11T04:32:38;-0.30;99.90
19692;DHT22;42748;50.016;19.890;2023-02-11T04:35:06;-0.30;99.90
19692;DHT22;42748;50.016;19.890;2023-02-11T04:37:33;-0.30;99.90
19692;DHT22;42748;50.016;19.890;2023-02-11T04:40:00;-0.30;99.90
19692;DHT22;42748;50.016;19.890;2023-02-11T04:42:27;-0.40;99.90
19692;DHT22;42748;50.016;19.890;2023-02-11T04:44:54;-0.40;99.90
19692;DHT22;42748;50.016;19.890;2023-02-11T04:47:21;-0.30;99.90
19692;DHT22;42748;50.016;19.890;2023-02-11T04:49:49;-0.30;99.90
19692;DHT22;42748;50.016;19.890;2023-02-11T04:52:16;-0.30;99.90
19692;DHT22;42748;50.016;19.890;2023-02-11T04:54:45;-0.30;99.90
19692;DHT22;42748;50.016;19.890;2023-02-11T04:57:12;-0.40;99.90
19692;DHT22;42748;50.016;19.890;2023-02-11T04:59:40;-0.40;99.90
19692;DHT22;42748;50.016;19.890;2023-02-11T05:02:07;-0.30;99.90
19692;DHT22;42748;50.016;19.890;2023-02-11T05:04:34;-0.30;99.90
19692;DHT22;42748;50.016;19.890;2023-02-11T05:07:01;-0.30;99.90
19692;DHT22;42748;50.016;19.890;2023-02-11T05:09:29;-0.30;99.90
19692;DHT22;42748;50.016;19.890;2023-02-11T05:11:56;-0.30;99.90
19692;DHT22;42748;50.016;19.890;2023-02-11T05:14:23;-0.30;99.90
19692;DHT22;42748;50.016;19.890;2023-02-11T05:16:50;-0.40;99.90
19692;DHT22;42748;50.016;19.890;2023-02-11T05:19:18;-0.50;99.90
19692;DHT22;42748;50.016;19.890;2023-02-11T05:21:45;-0.50;99.90
19692;DHT22;42748;50.016;19.890;2023-02-11T05:24:28;-0.50;99.90
19692;DHT22;42748;50.016;19.890;2023-02-11T05:26:57;-0.50;99.90
19692;DHT22;42748;50.016;19.890;2023-02-11T05:29:24;-0.40;99.90
19692;DHT22;42748;50.016;19.890;2023-02-11T05:31:51;-0.30;99.90
19692;DHT22;42748;50.016;19.890;2023-02-11T05:34:18;-0.30;99.90
19692;DHT22;42748;50.016;19.890;2023-02-11T05:36:45;-0.20;99.90
19692;DHT22;42748;50.016;19.890;2023-02-11T05:39:12;-0.20;99.90
19692;DHT22;42748;50.016;19.890;2023-02-11T05:41:40;-0.10;99.90
19692;DHT22;42748;50.016;19.890;2023-02-11T05:44:07;0.00;99.90
19692;DHT22;42748;50.016;19.890;2023-02-11T05:46:35;0.00;99.90
19692;DHT22;42748;50.016;19.890;2023-02-11T05:49:02;0.00;99.90
19692;DHT22;42748;50.016;19.890;2023-02-11T05:51:29;0.00;99.90
19692;DHT22;42748;50.016;19.890;2023-02-11T05:53:57;-0.10;99.90
19692;DHT22;42748;50.016;19.890;2023-02-11T05:56:24;-0.10;99.90
19692;DHT22;42748;50.016;19.890;2023-02-11T05:58:51;-0.10;99.90
19692;DHT22;42748;50.016;19.890;2023-02-11T06:01:18;0.00;99.90
19692;DHT22;42748;50.016;19.890;2023-02-11T06:03:45;0.00;99.90
19692;DHT22;42748;50.016;19.890;2023-02-11T06:06:12;0.10;99.90
19692;DHT22;42748;50.016;19.890;2023-02-11T06:08:39;0.10;99.90
19692;DHT22;42748;50.016;19.890;2023-02-11T06:11:07;0.20;99.90
19692;DHT22;42748;50.016;19.890;2023-02-11T06:13:35;0.10;99.90
19692;DHT22;42748;50.016;19.890;2023-02-11T06:16:02;0.10;99.90
19692;DHT22;42748;50.016;19.890;2023-02-11T06:18:30;0.10;99.90
19692;DHT22;42748;50.016;19.890;2023-02-11T06:20:59;0.10;99.90
19692;DHT22;42748;50.016;19.890;2023-02-11T06:23:26;0.10;99.90
19692;DHT22;42748;50.016;19.890;2023-02-11T06:26:01;0.10;99.90
19692;DHT22;42748;50.016;19.890;2023-02-11T06:28:29;0.20;99.90
19692;DHT22;42748;50.016;19.890;2023-02-11T06:31:06;0.20;99.90
19692;DHT22;42748;50.016;19.890;2023-02-11T06:33:34;0.00;99.90
19692;DHT22;42748;50.016;19.890;2023-02-11T06:36:01;0.00;99.90
19692;DHT22;42748;50.016;19.890;2023-02-11T06:38:29;0.00;99.90
19692;DHT22;42748;50.016;19.890;2023-02-11T06:40:57;0.00;99.90
19692;DHT22;42748;50.016;19.890;2023-02-11T06:43:24;0.00;99.90
19692;DHT22;42748;50.016;19.890;2023-02-11T06:45:52;0.10;99.90
19692;DHT22;42748;50.016;19.890;2023-02-11T06:48:20;0.00;99.90
19692;DHT22;42748;50.016;19.890;2023-02-11T06:50:48;0.10;99.90
19692;DHT22;42748;50.016;19.890;2023-02-11T06:53:15;0.10;99.90
19692;DHT22;42748;50.016;19.890;2023-02-11T06:55:42;0.20;99.90
19692;DHT22;42748;50.016;19.890;2023-02-11T06:58:10;0.20;99.90
19692;DHT22;42748;50.016;19.890;2023-02-11T07:00:37;0.30;99.90
19692;DHT22;42748;50.016;19.890;2023-02-11T07:03:04;0.40;99.90
19692;DHT22;42748;50.016;19.890;2023-02-11T07:05:32;0.50;99.90
19692;DHT22;42748;50.016;19.890;2023-02-11T07:08:00;0.60;99.90
19692;DHT22;42748;50.016;19.890;2023-02-11T07:10:27;0.70;99.90
19692;DHT22;42748;50.016;19.890;2023-02-11T07:12:54;0.80;99.90
19692;DHT22;42748;50.016;19.890;2023-02-11T07:15:24;0.80;99.90
19692;DHT22;42748;50.016;19.890;2023-02-11T07:17:51;0.80;99.90
19692;DHT22;42748;50.016;19.890;2023-02-11T07:20:19;0.90;99.90
19692;DHT22;42748;50.016;19.890;2023-02-11T07:22:46;0.80;99.90
19692;DHT22;42748;50.016;19.890;2023-02-11T07:25:13;0.90;99.90
19692;DHT22;42748;50.016;19.890;2023-02-11T07:27:40;1.00;99.90
19692;DHT22;42748;50.016;19.890;2023-02-11T07:30:08;1.00;99.90
19692;DHT22;42748;50.016;19.890;2023-02-11T07:32:35;1.10;99.90
19692;DHT22;42748;50.016;19.890;2023-02-11T07:35:03;1.20;99.90
19692;DHT22;42748;50.016;19.890;2023-02-11T07:37:33;1.20;99.90
19692;DHT22;42748;50.016;19.890;2023-02-11T07:40:00;1.10;99.90
19692;DHT22;42748;50.016;19.890;2023-02-11T07:42:28;1.20;99.90
19692;DHT22;42748;50.016;19.890;2023-02-11T07:44:55;1.30;99.90
19692;DHT22;42748;50.016;19.890;2023-02-11T07:47:22;1.30;99.90
19692;DHT22;42748;50.016;19.890;2023-02-11T07:49:49;1.40;99.90
19692;DHT22;42748;50.016;19.890;2023-02-11T07:52:16;1.50;99.90
19692;DHT22;42748;50.016;19.890;2023-02-11T07:54:44;1.60;99.90
19692;DHT22;42748;50.016;19.890;2023-02-11T07:57:11;1.90;99.90
19692;DHT22;42748;50.016;19.890;2023-02-11T07:59:38;2.10;99.90
19692;DHT22;42748;50.016;19.890;2023-02-11T08:02:05;2.20;99.90
19692;DHT22;42748;50.016;19.890;2023-02-11T08:04:33;2.50;99.90
19692;DHT22;42748;50.016;19.890;2023-02-11T08:07:00;2.60;99.90
19692;DHT22;42748;50.016;19.890;2023-02-11T08:09:28;3.00;99.90
19692;DHT22;42748;50.016;19.890;2023-02-11T08:11:57;3.40;99.90
19692;DHT22;42748;50.016;19.890;2023-02-11T08:14:25;3.70;99.90
19692;DHT22;42748;50.016;19.890;2023-02-11T08:16:53;3.80;99.90
19692;DHT22;42748;50.016;19.890;2023-02-11T08:19:20;4.00;99.90
19692;DHT22;42748;50.016;19.890;2023-02-11T08:21:48;4.20;99.90
19692;DHT22;42748;50.016;19.890;2023-02-11T08:24:15;4.80;99.90
19692;DHT22;42748;50.016;19.890;2023-02-11T08:26:42;5.70;99.90
19692;DHT22;42748;50.016;19.890;2023-02-11T08:29:12;5.60;99.90
19692;DHT22;42748;50.016;19.890;2023-02-11T08:31:41;5.70;99.90
19692;DHT22;42748;50.016;19.890;2023-02-11T08:34:10;5.60;99.90
19692;DHT22;42748;50.016;19.890;2023-02-11T08:36:39;5.90;99.90
19692;DHT22;42748;50.016;19.890;2023-02-11T08:39:09;6.30;99.90
19692;DHT22;42748;50.016;19.890;2023-02-11T08:41:50;6.60;99.90
19692;DHT22;42748;50.016;19.890;2023-02-11T08:44:19;6.60;99.90
19692;DHT22;42748;50.016;19.890;2023-02-11T08:46:46;7.00;99.90
19692;DHT22;42748;50.016;19.890;2023-02-11T08:49:14;6.70;99.90
19692;DHT22;42748;50.016;19.890;2023-02-11T08:51:42;6.40;99.90
19692;DHT22;42748;50.016;19.890;2023-02-11T08:54:10;6.80;99.90
19692;DHT22;42748;50.016;19.890;2023-02-11T08:56:38;6.90;99.90
19692;DHT22;42748;50.016;19.890;2023-02-11T08:59:07;7.00;99.90
19692;DHT22;42748;50.016;19.890;2023-02-11T09:01:35;7.20;99.90
19692;DHT22;42748;50.016;19.890;2023-02-11T09:04:03;7.70;96.30
19692;DHT22;42748;50.016;19.890;2023-02-11T09:06:31;7.50;96.90
19692;DHT22;42748;50.016;19.890;2023-02-11T09:08:58;7.40;97.20
19692;DHT22;42748;50.016;19.890;2023-02-11T09:11:31;7.30;95.80
19692;DHT22;42748;50.016;19.890;2023-02-11T09:13:59;7.20;98.30
19692;DHT22;42748;50.016;19.890;2023-02-11T09:16:29;7.60;94.70
19692;DHT22;42748;50.016;19.890;2023-02-11T09:18:58;7.30;97.20
19692;DHT22;42748;50.016;19.890;2023-02-11T09:21:26;7.20;98.90
19692;DHT22;42748;50.016;19.890;2023-02-11T09:23:53;7.30;99.90
19692;DHT22;42748;50.016;19.890;2023-02-11T09:26:26;7.00;99.90
19692;DHT22;42748;50.016;19.890;2023-02-11T09:28:54;7.20;99.90
19692;DHT22;42748;50.016;19.890;2023-02-11T09:31:23;7.00;99.90
19692;DHT22;42748;50.016;19.890;2023-02-11T09:33:55;6.30;99.90
19692;DHT22;42748;50.016;19.890;2023-02-11T09:36:25;5.80;99.90
19692;DHT22;42748;50.016;19.890;2023-02-11T09:38:52;5.50;99.90
19692;DHT22;42748;50.016;19.890;2023-02-11T09:43:57;5.10;99.90
19692;DHT22;42748;50.016;19.890;2023-02-11T09:46:29;5.10;99.90
19692;DHT22;42748;50.016;19.890;2023-02-11T09:48:58;5.00;99.90
19692;DHT22;42748;50.016;19.890;2023-02-11T09:51:39;4.90;99.90
19692;DHT22;42748;50.016;19.890;2023-02-11T09:54:36;4.90;99.90
19692;DHT22;42748;50.016;19.890;2023-02-11T09:57:08;4.80;99.90
19692;DHT22;42748;50.016;19.890;2023-02-11T09:59:55;4.90;99.90
19692;DHT22;42748;50.016;19.890;2023-02-11T10:14:22;4.80;99.90
19692;DHT22;42748;50.016;19.890;2023-02-11T10:22:26;4.60;99.90
19692;DHT22;42748;50.016;19.890;2023-02-11T10:24:56;4.60;99.90
19692;DHT22;42748;50.016;19.890;2023-02-11T10:27:34;4.70;99.90
19692;DHT22;42748;50.016;19.890;2023-02-11T10:30:15;4.60;99.90
19692;DHT22;42748;50.016;19.890;2023-02-11T10:32:51;4.70;99.90
19692;DHT22;42748;50.016;19.890;2023-02-11T10:35:22;4.70;99.90
19692;DHT22;42748;50.016;19.890;2023-02-11T10:37:49;4.60;99.90
19692;DHT22;42748;50.016;19.890;2023-02-11T10:40:31;4.70;99.90
19692;DHT22;42748;50.016;19.890;2023-02-11T10:43:03;4.70;99.90
19692;DHT22;42748;50.016;19.890;2023-02-11T10:45:46;4.80;99.90
19692;DHT22;42748;50.016;19.890;2023-02-11T10:48:37;4.80;99.90
19692;DHT22;42748;50.016;19.890;2023-02-11T10:56:36;5.30;99.90
19692;DHT22;42748;50.016;19.890;2023-02-11T11:01:45;5.50;99.90
19692;DHT22;42748;50.016;19.890;2023-02-11T11:07:25;6.10;99.90
19692;DHT22;42748;50.016;19.890;2023-02-11T11:10:00;6.10;99.90
19692;DHT22;42748;50.016;19.890;2023-02-11T11:12:47;5.80;99.90
19692;DHT22;42748;50.016;19.890;2023-02-11T11:15:16;5.90;99.90
19692;DHT22;42748;50.016;19.890;2023-02-11T11:17:44;5.90;99.90
19692;DHT22;42748;50.016;19.890;2023-02-11T11:20:29;5.80;99.90
19692;DHT22;42748;50.016;19.890;2023-02-11T11:25:44;6.00;99.90
19692;DHT22;42748;50.016;19.890;2023-02-11T11:28:24;6.20;99.90
19692;DHT22;42748;50.016;19.890;2023-02-11T11:30:53;6.20;99.90
19692;DHT22;42748;50.016;19.890;2023-02-11T11:33:30;6.20;99.90
19692;DHT22;42748;50.016;19.890;2023-02-11T11:36:07;6.50;99.90
19692;DHT22;42748;50.016;19.890;2023-02-11T11:38:41;6.70;99.90
19692;DHT22;42748;50.016;19.890;2023-02-11T11:41:17;6.40;99.90
19692;DHT22;42748;50.016;19.890;2023-02-11T11:44:02;6.50;99.90
19692;DHT22;42748;50.016;19.890;2023-02-11T11:46:39;6.40;99.90
19692;DHT22;42748;50.016;19.890;2023-02-11T11:49:28;6.30;99.90
19692;DHT22;42748;50.016;19.890;2023-02-11T11:54:37;6.10;99.90
19692;DHT22;42748;50.016;19.890;2023-02-11T11:57:13;6.00;99.90
19692;DHT22;42748;50.016;19.890;2023-02-11T11:59:42;5.90;99.90
19692;DHT22;42748;50.016;19.890;2023-02-11T12:05:42;5.70;99.90
19692;DHT22;42748;50.016;19.890;2023-02-11T12:08:33;5.70;99.90
19692;DHT22;42748;50.016;19.890;2023-02-11T12:11:29;5.70;99.90
19692;DHT22;42748;50.016;19.890;2023-02-11T12:16:42;5.60;99.90
19692;DHT22;42748;50.016;19.890;2023-02-11T12:22:25;5.50;99.90
19692;DHT22;42748;50.016;19.890;2023-02-11T12:28:06;5.40;99.90
19692;DHT22;42748;50.016;19.890;2023-02-11T12:31:01;5.30;99.90
19692;DHT22;42748;50.016;19.890;2023-02-11T12:33:51;5.20;99.90
19692;DHT22;42748;50.016;19.890;2023-02-11T12:36:59;5.10;99.90
19692;DHT22;42748;50.016;19.890;2023-02-11T12:45:24;5.00;99.90
19692;DHT22;42748;50.016;19.890;2023-02-11T12:48:41;5.20;99.90
19692;DHT22;42748;50.016;19.890;2023-02-11T12:51:25;5.10;99.90
19692;DHT22;42748;50.016;19.890;2023-02-11T13:01:52;4.80;99.90
19692;DHT22;42748;50.016;19.890;2023-02-11T13:04:55;4.80;99.90
19692;DHT22;42748;50.016;19.890;2023-02-11T13:07:33;4.80;99.90
19692;DHT22;42748;50.016;19.890;2023-02-11T13:12:34;4.80;99.90
19692;DHT22;42748;50.016;19.890;2023-02-11T13:15:21;4.70;99.90
19692;DHT22;42748;50.016;19.890;2023-02-11T13:18:18;4.70;99.90
19692;DHT22;42748;50.016;19.890;2023-02-11T13:26:19;4.50;99.90
19692;DHT22;42748;50.016;19.890;2023-02-11T13:31:35;4.40;99.90
19692;DHT22;42748;50.016;19.890;2023-02-11T13:34:23;4.40;99.90
19692;DHT22;42748;50.016;19.890;2023-02-11T13:36:55;4.40;99.90
19692;DHT22;42748;50.016;19.890;2023-02-11T13:39:23;4.40;99.90
19692;DHT22;42748;50.016;19.890;2023-02-11T13:42:01;4.40;99.90
19692;DHT22;42748;50.016;19.890;2023-02-11T13:44:32;4.40;99.90
19692;DHT22;42748;50.016;19.890;2023-02-11T13:47:04;4.40;99.90
19692;DHT22;42748;50.016;19.890;2023-02-11T13:49:38;4.40;99.90
19692;DHT22;42748;50.016;19.890;2023-02-11T13:52:36;4.40;99.90
19692;DHT22;42748;50.016;19.890;2023-02-11T13:55:19;4.40;99.90
19692;DHT22;42748;50.016;19.890;2023-02-11T14:00:55;4.40;99.90
19692;DHT22;42748;50.016;19.890;2023-02-11T14:03:26;4.50;99.90
19692;DHT22;42748;50.016;19.890;2023-02-11T14:06:15;4.50;99.90
19692;DHT22;42748;50.016;19.890;2023-02-11T14:22:21;4.60;99.90
19692;DHT22;42748;50.016;19.890;2023-02-11T14:24:54;4.50;99.90
19692;DHT22;42748;50.016;19.890;2023-02-11T14:36:17;4.50;99.90
19692;DHT22;42748;50.016;19.890;2023-02-11T14:39:00;4.50;99.90
19692;DHT22;42748;50.016;19.890;2023-02-11T14:41:33;4.50;99.90
19692;DHT22;42748;50.016;19.890;2023-02-11T14:44:13;4.50;99.90
19692;DHT22;42748;50.016;19.890;2023-02-11T14:46:46;4.50;99.90
19692;DHT22;42748;50.016;19.890;2023-02-11T14:51:53;4.40;99.90
19692;DHT22;42748;50.016;19.890;2023-02-11T14:54:26;4.40;99.90
19692;DHT22;42748;50.016;19.890;2023-02-11T14:57:20;4.40;99.90
19692;DHT22;42748;50.016;19.890;2023-02-11T14:59:58;4.40;99.90
19692;DHT22;42748;50.016;19.890;2023-02-11T15:02:32;4.40;99.90
19692;DHT22;42748;50.016;19.890;2023-02-11T15:05:32;4.30;99.90
19692;DHT22;42748;50.016;19.890;2023-02-11T15:08:02;4.20;99.90
19692;DHT22;42748;50.016;19.890;2023-02-11T15:10:35;4.20;99.90
19692;DHT22;42748;50.016;19.890;2023-02-11T15:13:04;4.10;99.90
19692;DHT22;42748;50.016;19.890;2023-02-11T15:15:32;4.00;99.90
19692;DHT22;42748;50.016;19.890;2023-02-11T15:18:02;3.90;99.90
19692;DHT22;42748;50.016;19.890;2023-02-11T15:20:31;3.90;99.90
19692;DHT22;42748;50.016;19.890;2023-02-11T15:23:02;3.90;99.90
19692;DHT22;42748;50.016;19.890;2023-02-11T15:25:30;3.80;99.90
19692;DHT22;42748;50.016;19.890;2023-02-11T15:28:00;3.80;99.90
19692;DHT22;42748;50.016;19.890;2023-02-11T15:30:31;3.70;99.90
19692;DHT22;42748;50.016;19.890;2023-02-11T15:33:03;3.70;99.90
19692;DHT22;42748;50.016;19.890;2023-02-11T15:35:37;3.60;99.90
19692;DHT22;42748;50.016;19.890;2023-02-11T15:38:11;3.60;99.90
19692;DHT22;42748;50.016;19.890;2023-02-11T15:40:39;3.50;99.90
19692;DHT22;42748;50.016;19.890;2023-02-11T15:43:09;3.50;99.90
19692;DHT22;42748;50.016;19.890;2023-02-11T15:45:39;3.40;99.90
19692;DHT22;42748;50.016;19.890;2023-02-11T15:48:13;3.30;99.90
19692;DHT22;42748;50.016;19.890;2023-02-11T15:50:49;3.30;99.90
19692;DHT22;42748;50.016;19.890;2023-02-11T15:55:51;3.10;99.90
19692;DHT22;42748;50.016;19.890;2023-02-11T15:58:20;3.10;99.90
19692;DHT22;42748;50.016;19.890;2023-02-11T16:00:50;3.10;99.90
19692;DHT22;42748;50.016;19.890;2023-02-11T16:03:24;3.10;99.90
19692;DHT22;42748;50.016;19.890;2023-02-11T16:05:53;3.00;99.90
19692;DHT22;42748;50.016;19.890;2023-02-11T16:08:27;3.00;99.90
19692;DHT22;42748;50.016;19.890;2023-02-11T16:13:26;3.00;99.90
19692;DHT22;42748;50.016;19.890;2023-02-11T16:16:01;3.00;99.90
19692;DHT22;42748;50.016;19.890;2023-02-11T16:18:38;3.00;99.90
19692;DHT22;42748;50.016;19.890;2023-02-11T16:21:27;3.00;99.90
19692;DHT22;42748;50.016;19.890;2023-02-11T16:24:20;2.90;99.90
19692;DHT22;42748;50.016;19.890;2023-02-11T16:26:50;2.90;99.90
19692;DHT22;42748;50.016;19.890;2023-02-11T16:29:26;2.90;99.90
19692;DHT22;42748;50.016;19.890;2023-02-11T16:32:23;2.90;99.90
19692;DHT22;42748;50.016;19.890;2023-02-11T16:34:54;2.90;99.90
19692;DHT22;42748;50.016;19.890;2023-02-11T16:37:21;2.90;99.90
19692;DHT22;42748;50.016;19.890;2023-02-11T16:39:49;2.90;99.90
19692;DHT22;42748;50.016;19.890;2023-02-11T16:42:16;2.90;99.90
19692;DHT22;42748;50.016;19.890;2023-02-11T16:44:43;3.00;99.90
19692;DHT22;42748;50.016;19.890;2023-02-11T16:47:23;3.00;99.90
19692;DHT22;42748;50.016;19.890;2023-02-11T16:49:51;3.00;99.90
19692;DHT22;42748;50.016;19.890;2023-02-11T16:52:20;2.90;99.90
19692;DHT22;42748;50.016;19.890;2023-02-11T16:54:48;2.90;99.90
19692;DHT22;42748;50.016;19.890;2023-02-11T16:57:21;2.90;99.90
19692;DHT22;42748;50.016;19.890;2023-02-11T16:59:48;3.00;99.90
19692;DHT22;42748;50.016;19.890;2023-02-11T17:02:29;3.00;99.90
19692;DHT22;42748;50.016;19.890;2023-02-11T17:05:01;3.00;99.90
19692;DHT22;42748;50.016;19.890;2023-02-11T17:07:29;2.90;99.90
19692;DHT22;42748;50.016;19.890;2023-02-11T17:09:57;3.00;99.90
19692;DHT22;42748;50.016;19.890;2023-02-11T17:12:24;3.00;99.90
19692;DHT22;42748;50.016;19.890;2023-02-11T17:14:52;3.00;99.90
19692;DHT22;42748;50.016;19.890;2023-02-11T17:17:19;3.00;99.90
19692;DHT22;42748;50.016;19.890;2023-02-11T17:19:49;3.00;99.90
19692;DHT22;42748;50.016;19.890;2023-02-11T17:22:17;3.00;99.90
19692;DHT22;42748;50.016;19.890;2023-02-11T17:24:44;3.00;99.90
19692;DHT22;42748;50.016;19.890;2023-02-11T17:27:11;3.00;99.90
19692;DHT22;42748;50.016;19.890;2023-02-11T17:29:39;3.00;99.90
19692;DHT22;42748;50.016;19.890;2023-02-11T17:32:06;3.00;99.90
19692;DHT22;42748;50.016;19.890;2023-02-11T17:34:33;3.00;99.90
19692;DHT22;42748;50.016;19.890;2023-02-11T17:37:00;3.00;99.90
19692;DHT22;42748;50.016;19.890;2023-02-11T17:39:38;3.00;99.90
19692;DHT22;42748;50.016;19.890;2023-02-11T17:42:06;3.00;99.90
19692;DHT22;42748;50.016;19.890;2023-02-11T17:44:34;3.00;99.90
19692;DHT22;42748;50.016;19.890;2023-02-11T17:47:01;3.00;99.90
19692;DHT22;42748;50.016;19.890;2023-02-11T17:49:29;3.10;99.90
19692;DHT22;42748;50.016;19.890;2023-02-11T17:51:56;3.10;99.90
19692;DHT22;42748;50.016;19.890;2023-02-11T17:54:23;3.10;99.90
19692;DHT22;42748;50.016;19.890;2023-02-11T17:56:51;3.10;99.90
19692;DHT22;42748;50.016;19.890;2023-02-11T17:59:23;3.10;99.90
19692;DHT22;42748;50.016;19.890;2023-02-11T18:01:51;3.10;99.90
19692;DHT22;42748;50.016;19.890;2023-02-11T18:04:19;3.00;99.90
19692;DHT22;42748;50.016;19.890;2023-02-11T18:06:46;3.00;99.90
19692;DHT22;42748;50.016;19.890;2023-02-11T18:09:13;3.00;99.90
19692;DHT22;42748;50.016;19.890;2023-02-11T18:11:40;3.00;99.90
19692;DHT22;42748;50.016;19.890;2023-02-11T18:14:09;3.00;99.90
19692;DHT22;42748;50.016;19.890;2023-02-11T18:16:36;3.10;99.90
19692;DHT22;42748;50.016;19.890;2023-02-11T18:19:06;3.10;99.90
19692;DHT22;42748;50.016;19.890;2023-02-11T18:21:33;3.10;99.90
19692;DHT22;42748;50.016;19.890;2023-02-11T18:24:01;3.10;99.90
19692;DHT22;42748;50.016;19.890;2023-02-11T18:26:32;3.20;99.90
19692;DHT22;42748;50.016;19.890;2023-02-11T18:29:00;3.20;99.90
19692;DHT22;42748;50.016;19.890;2023-02-11T18:31:29;3.20;99.90